createdAt,value
2019-06-01T00:00:24.815Z,18.40
2019-06-01T00:02:57.217Z,18.40
2019-06-01T00:05:27.712Z,18.40
2019-06-01T00:07:58.255Z,18.40
2019-06-01T00:10:27.590Z,18.30
2019-06-01T00:12:56.989Z,18.30
2019-06-01T00:15:26.631Z,18.20
2019-06-01T00:17:55.937Z,18.10
2019-06-01T00:20:25.238Z,18.10
2019-06-01T00:22:54.593Z,17.90
2019-06-01T00:25:23.871Z,17.90
2019-06-01T00:27:53.223Z,17.90
2019-06-01T00:30:27.057Z,18.00
2019-06-01T00:32:54.604Z,18.00
2019-06-01T00:35:23.935Z,18.00
2019-06-01T00:37:53.251Z,17.80
2019-06-01T00:40:22.809Z,17.90
2019-06-01T00:42:52.500Z,18.00
2019-06-01T00:45:22.042Z,18.00
2019-06-01T00:47:52.909Z,17.90
2019-06-01T00:50:22.497Z,17.70
2019-06-01T00:52:51.910Z,17.50
2019-06-01T00:55:21.595Z,17.60
2019-06-01T00:57:51.899Z,17.60
2019-06-01T01:00:21.584Z,17.40
2019-06-01T01:02:52.120Z,17.40
2019-06-01T01:05:22.216Z,17.30
2019-06-01T01:07:52.138Z,17.40
2019-06-01T01:10:22.816Z,17.40
2019-06-01T01:13:10.124Z,17.50
2019-06-01T01:15:39.462Z,17.50
2019-06-01T01:18:09.358Z,17.50
2019-06-01T01:20:38.828Z,17.50
2019-06-01T01:23:08.716Z,17.50
2019-06-01T01:25:39.351Z,17.50
2019-06-01T01:28:08.988Z,17.60
2019-06-01T01:30:38.317Z,17.60
2019-06-01T01:33:07.839Z,17.40
2019-06-01T01:35:37.227Z,17.40
2019-06-01T01:38:07.023Z,17.40
2019-06-01T01:40:36.497Z,17.30
2019-06-01T01:43:05.829Z,17.20
2019-06-01T01:45:35.185Z,17.20
2019-06-01T01:48:04.550Z,17.30
2019-06-01T01:50:33.877Z,17.30
2019-06-01T01:53:04.194Z,17.30
2019-06-01T01:55:33.507Z,17.20
2019-06-01T01:58:02.883Z,17.20
2019-06-01T02:00:38.370Z,17.20
2019-06-01T02:03:08.501Z,17.00
2019-06-01T02:05:38.007Z,16.90
2019-06-01T02:08:09.134Z,17.10
2019-06-01T02:10:38.610Z,17.10
2019-06-01T02:13:08.091Z,17.00
2019-06-01T02:15:40.350Z,17.00
2019-06-01T02:18:09.726Z,16.80
2019-06-01T02:20:39.039Z,16.80
2019-06-01T02:23:08.348Z,16.80
2019-06-01T02:25:37.743Z,16.70
2019-06-01T02:28:07.047Z,16.70
2019-06-01T02:30:37.371Z,16.70
2019-06-01T02:33:06.797Z,16.70
2019-06-01T02:35:36.253Z,16.70
2019-06-01T02:38:05.992Z,16.80
2019-06-01T02:40:35.676Z,16.70
2019-06-01T02:43:06.698Z,16.60
2019-06-01T02:45:36.359Z,16.60
2019-06-01T02:48:06.547Z,16.50
2019-06-01T02:50:37.022Z,16.60
2019-06-01T02:53:06.425Z,16.60
2019-06-01T02:55:35.788Z,16.40
2019-06-01T02:58:06.878Z,16.30
2019-06-01T03:00:49.307Z,16.40
2019-06-01T03:03:19.805Z,16.40
2019-06-01T03:05:50.762Z,16.40
2019-06-01T03:08:20.416Z,16.20
2019-06-01T03:10:52.332Z,16.20
2019-06-01T03:13:23.278Z,16.30
2019-06-01T03:15:54.646Z,16.20
2019-06-01T03:18:25.916Z,16.20
2019-06-01T03:20:57.750Z,16.30
2019-06-01T03:23:29.388Z,16.50
2019-06-01T03:26:00.465Z,16.50
2019-06-01T03:28:33.114Z,16.40
2019-06-01T03:31:03.424Z,16.40
2019-06-01T03:33:33.417Z,16.30
2019-06-01T03:36:02.903Z,16.10
2019-06-01T03:38:32.221Z,16.20
2019-06-01T03:41:02.096Z,16.20
2019-06-01T03:43:31.473Z,16.20
2019-06-01T03:46:00.859Z,16.10
2019-06-01T03:48:30.161Z,16.00
2019-06-01T03:50:59.475Z,16.10
2019-06-01T03:53:28.797Z,16.10
2019-06-01T03:55:58.255Z,16.10
2019-06-01T03:58:27.636Z,15.90
2019-06-01T04:00:56.983Z,15.90
2019-06-01T04:03:28.306Z,15.90
2019-06-01T04:05:58.819Z,16.00
2019-06-01T04:08:28.254Z,16.00
2019-06-01T04:10:57.588Z,15.90
2019-06-01T04:13:27.751Z,16.10
2019-06-01T04:15:57.160Z,16.20
2019-06-01T04:18:27.079Z,16.10
2019-06-01T04:20:56.395Z,16.10
2019-06-01T04:23:27.161Z,16.20
2019-06-01T04:25:56.675Z,16.20
2019-06-01T04:28:26.956Z,16.00
2019-06-01T04:30:56.551Z,16.00
2019-06-01T04:33:26.397Z,16.00
2019-06-01T04:36:00.635Z,16.10
2019-06-01T04:38:31.549Z,16.20
2019-06-01T04:41:00.895Z,16.20
2019-06-01T04:43:30.442Z,16.30
2019-06-01T04:45:59.796Z,16.30
2019-06-01T04:48:29.584Z,16.30
2019-06-01T04:50:59.611Z,16.30
2019-06-01T04:53:28.990Z,16.40
2019-06-01T04:55:58.835Z,16.30
2019-06-01T04:58:28.111Z,16.20
2019-06-01T05:00:57.999Z,16.40
2019-06-01T05:03:27.466Z,16.50
2019-06-01T05:05:56.827Z,16.70
2019-06-01T05:08:26.127Z,16.70
2019-06-01T05:10:55.447Z,16.80
2019-06-01T05:13:24.931Z,16.80
2019-06-01T05:15:54.265Z,16.90
2019-06-01T05:18:23.573Z,16.90
2019-06-01T05:20:52.967Z,17.00
2019-06-01T05:23:22.440Z,17.10
2019-06-01T05:25:53.380Z,17.10
2019-06-01T05:28:22.895Z,17.10
2019-06-01T05:30:52.216Z,17.20
2019-06-01T05:33:36.451Z,17.10
2019-06-01T05:35:52.655Z,17.30
2019-06-01T05:38:23.062Z,17.40
2019-06-01T05:40:53.076Z,17.50
2019-06-01T05:43:23.418Z,17.50
2019-06-01T05:45:52.823Z,17.50
2019-06-01T05:48:26.597Z,17.60
2019-06-01T05:50:53.199Z,17.70
2019-06-01T05:53:24.595Z,17.80
2019-06-01T05:55:54.200Z,17.90
2019-06-01T05:58:23.503Z,18.10
2019-06-01T06:00:52.940Z,18.20
2019-06-01T06:03:39.311Z,18.30
2019-06-01T06:05:53.479Z,18.20
2019-06-01T06:08:22.958Z,18.30
2019-06-01T06:10:52.511Z,18.40
2019-06-01T06:13:21.821Z,18.40
2019-06-01T06:15:51.287Z,18.60
2019-06-01T06:18:20.606Z,18.60
2019-06-01T06:20:49.976Z,18.70
2019-06-01T06:23:20.443Z,18.70
2019-06-01T06:25:50.157Z,18.80
2019-06-01T06:28:20.745Z,18.90
2019-06-01T06:30:53.147Z,18.90
2019-06-01T06:33:26.349Z,18.80
2019-06-01T06:35:57.438Z,19.00
2019-06-01T06:38:26.995Z,19.20
2019-06-01T06:40:58.695Z,19.30
2019-06-01T06:43:32.831Z,19.50
2019-06-01T06:46:00.774Z,19.40
2019-06-01T06:48:33.117Z,19.60
2019-06-01T06:51:02.881Z,19.60
2019-06-01T06:53:35.238Z,19.60
2019-06-01T06:56:05.098Z,19.60
2019-06-01T06:58:34.696Z,19.60
2019-06-01T07:01:05.496Z,19.70
2019-06-01T07:03:35.950Z,19.70
2019-06-01T07:06:07.888Z,19.70
2019-06-01T07:08:37.420Z,19.80
2019-06-01T07:11:07.393Z,19.80
2019-06-01T07:13:36.793Z,19.90
2019-06-01T07:16:06.305Z,19.90
2019-06-01T07:18:35.879Z,20.00
2019-06-01T07:21:05.370Z,20.10
2019-06-01T07:23:34.719Z,20.20
2019-06-01T07:26:04.163Z,20.40
2019-06-01T07:28:34.526Z,20.30
2019-06-01T07:31:03.880Z,20.40
2019-06-01T07:33:33.487Z,20.50
2019-06-01T07:36:02.791Z,20.70
2019-06-01T07:38:33.248Z,20.80
2019-06-01T07:41:02.823Z,20.70
2019-06-01T07:43:33.170Z,20.50
2019-06-01T07:46:02.741Z,20.70
2019-06-01T07:48:33.318Z,20.90
2019-06-01T07:51:02.845Z,21.10
2019-06-01T07:53:33.256Z,21.30
2019-06-01T07:56:02.659Z,21.60
2019-06-01T07:58:32.934Z,21.70
2019-06-01T08:01:02.496Z,21.80
2019-06-01T08:03:34.793Z,21.80
2019-06-01T08:06:03.102Z,21.60
2019-06-01T08:08:32.957Z,21.70
2019-06-01T08:11:02.356Z,21.70
2019-06-01T08:13:35.282Z,21.70
2019-06-01T08:16:02.906Z,21.90
2019-06-01T08:18:32.352Z,22.00
2019-06-01T08:21:01.846Z,21.90
2019-06-01T08:23:32.471Z,22.10
2019-06-01T08:26:02.300Z,22.30
2019-06-01T08:28:32.866Z,22.40
2019-06-01T08:31:02.304Z,22.40
2019-06-01T08:33:34.647Z,22.50
2019-06-01T08:36:02.994Z,22.40
2019-06-01T08:38:33.685Z,22.40
2019-06-01T08:41:03.192Z,22.50
2019-06-01T08:43:33.828Z,22.60
2019-06-01T08:46:03.573Z,22.80
2019-06-01T08:48:34.158Z,23.20
2019-06-01T08:51:03.778Z,23.40
2019-06-01T08:53:34.336Z,23.20
2019-06-01T08:56:03.668Z,23.20
2019-06-01T08:58:34.537Z,23.30
2019-06-01T09:01:04.289Z,23.50
2019-06-01T09:03:39.893Z,23.60
2019-06-01T09:06:05.735Z,23.70
2019-06-01T09:08:35.362Z,23.90
2019-06-01T09:11:04.856Z,24.10
2019-06-01T09:13:35.363Z,24.00
2019-06-01T09:16:05.559Z,23.80
2019-06-01T09:18:35.847Z,23.90
2019-06-01T09:21:05.457Z,24.00
2019-06-01T09:23:37.099Z,24.30
2019-06-01T09:26:05.873Z,24.60
2019-06-01T09:28:36.195Z,24.30
2019-06-01T09:31:05.767Z,24.20
2019-06-01T09:33:36.728Z,24.50
2019-06-01T09:36:06.290Z,24.80
2019-06-01T09:38:36.042Z,25.00
2019-06-01T09:41:05.509Z,25.20
2019-06-01T09:43:35.053Z,25.00
2019-06-01T09:46:04.512Z,25.20
2019-06-01T09:48:33.822Z,25.30
2019-06-01T09:51:03.138Z,25.20
2019-06-01T09:53:32.975Z,25.30
2019-06-01T09:56:04.050Z,25.50
2019-06-01T09:58:34.598Z,25.40
2019-06-01T10:01:04.168Z,25.50
2019-06-01T10:03:34.445Z,25.80
2019-06-01T10:06:04.260Z,26.00
2019-06-01T10:08:34.350Z,26.20
2019-06-01T10:11:03.833Z,26.20
2019-06-01T10:13:34.428Z,26.10
2019-06-01T10:16:04.037Z,26.00
2019-06-01T10:18:35.212Z,26.00
2019-06-01T10:21:04.684Z,25.40
2019-06-01T10:23:34.472Z,25.50
2019-06-01T10:26:04.125Z,25.60
2019-06-01T10:28:33.601Z,25.70
2019-06-01T10:31:03.086Z,25.80
2019-06-01T10:33:32.709Z,25.90
2019-06-01T10:36:19.166Z,26.00
2019-06-01T10:38:33.527Z,26.20
2019-06-01T10:41:02.966Z,26.20
2019-06-01T10:43:33.603Z,26.60
2019-06-01T10:46:04.309Z,26.80
2019-06-01T10:48:34.502Z,26.80
2019-06-01T10:51:03.942Z,27.00
2019-06-01T10:53:34.841Z,27.20
2019-06-01T10:56:04.308Z,27.60
2019-06-01T10:58:35.969Z,27.40
2019-06-01T11:01:04.822Z,27.40
2019-06-01T11:03:34.648Z,27.40
2019-06-01T11:06:04.439Z,27.30
2019-06-01T11:08:35.516Z,27.30
2019-06-01T11:11:05.003Z,27.20
2019-06-01T11:13:35.037Z,27.00
2019-06-01T11:16:04.618Z,27.30
2019-06-01T11:18:35.150Z,27.20
2019-06-01T11:21:04.894Z,27.30
2019-06-01T11:23:35.446Z,27.50
2019-06-01T11:26:05.076Z,28.00
2019-06-01T11:28:36.076Z,28.10
2019-06-01T11:31:06.139Z,28.30
2019-06-01T11:33:36.459Z,28.50
2019-06-01T11:36:05.783Z,28.60
2019-06-01T11:38:36.255Z,29.00
2019-06-01T11:41:05.906Z,28.80
2019-06-01T11:43:36.406Z,28.40
2019-06-01T11:46:05.829Z,28.00
2019-06-01T11:48:35.227Z,27.90
2019-06-01T11:51:05.645Z,28.00
2019-06-01T11:53:35.192Z,28.20
2019-06-01T11:56:04.541Z,28.10
2019-06-01T11:58:35.084Z,28.20
2019-06-01T12:01:04.510Z,28.00
2019-06-01T12:03:33.919Z,28.10
2019-06-01T12:06:03.304Z,28.50
2019-06-01T12:08:34.113Z,28.60
2019-06-01T12:11:04.111Z,29.10
2019-06-01T12:13:33.418Z,29.60
2019-06-01T12:16:02.762Z,28.90
2019-06-01T12:18:32.084Z,29.00
2019-06-01T12:21:01.388Z,29.20
2019-06-01T12:23:30.694Z,29.70
2019-06-01T12:26:00.123Z,29.80
2019-06-01T12:28:29.414Z,29.90
2019-06-01T12:30:58.730Z,29.50
2019-06-01T12:33:28.038Z,29.50
2019-06-01T12:35:57.427Z,29.60
2019-06-01T12:38:26.730Z,29.90
2019-06-01T12:40:56.095Z,29.80
2019-06-01T12:43:25.503Z,29.60
2019-06-01T12:46:06.973Z,29.40
2019-06-01T12:48:25.862Z,29.20
2019-06-01T12:50:55.205Z,29.50
2019-06-01T12:53:24.511Z,29.60
2019-06-01T12:55:53.846Z,29.50
2019-06-01T12:58:23.169Z,29.70
2019-06-01T13:00:52.598Z,29.80
2019-06-01T13:03:22.010Z,29.80
2019-06-01T13:05:51.898Z,29.60
2019-06-01T13:08:21.319Z,29.70
2019-06-01T13:10:51.735Z,29.80
2019-06-01T13:13:21.248Z,29.80
2019-06-01T13:15:51.407Z,29.40
2019-06-01T13:18:20.860Z,29.60
2019-06-01T13:20:51.551Z,29.60
2019-06-01T13:23:21.045Z,29.90
2019-06-01T13:25:50.356Z,30.00
2019-06-01T13:28:19.821Z,30.20
2019-06-01T13:30:49.728Z,30.20
2019-06-01T13:33:20.331Z,30.20
2019-06-01T13:35:50.624Z,30.20
2019-06-01T13:38:20.245Z,30.40
2019-06-01T13:40:49.605Z,30.10
2019-06-01T13:43:18.935Z,29.90
2019-06-01T13:45:49.303Z,30.00
2019-06-01T13:48:18.756Z,30.30
2019-06-01T13:50:48.043Z,30.30
2019-06-01T13:53:18.464Z,30.20
2019-06-01T13:55:48.387Z,30.00
2019-06-01T13:58:17.840Z,29.90
2019-06-01T14:00:48.305Z,29.80
2019-06-01T14:03:17.882Z,29.70
2019-06-01T14:05:47.376Z,29.70
2019-06-01T14:08:28.372Z,29.50
2019-06-01T14:10:47.744Z,29.60
2019-06-01T14:13:17.071Z,29.50
2019-06-01T14:15:47.343Z,29.50
2019-06-01T14:18:16.839Z,29.50
2019-06-01T14:20:47.481Z,29.70
2019-06-01T14:23:17.498Z,29.60
2019-06-01T14:25:47.997Z,29.50
2019-06-01T14:28:17.381Z,29.40
2019-06-01T14:30:48.347Z,29.80
2019-06-01T14:33:17.834Z,30.20
2019-06-01T14:35:48.298Z,30.40
2019-06-01T14:38:17.925Z,30.40
2019-06-01T14:40:47.323Z,30.50
2019-06-01T14:43:16.660Z,30.70
2019-06-01T14:45:47.213Z,30.70
2019-06-01T14:48:16.768Z,30.40
2019-06-01T14:50:47.428Z,30.40
2019-06-01T14:53:16.868Z,30.70
2019-06-01T14:55:47.549Z,30.90
2019-06-01T14:58:17.090Z,30.50
2019-06-01T15:03:37.675Z,29.70
2019-06-01T15:06:08.051Z,29.40
2019-06-01T15:08:37.475Z,29.30
2019-06-01T15:11:06.792Z,29.20
2019-06-01T15:13:36.211Z,29.10
2019-06-01T15:16:05.595Z,29.30
2019-06-01T15:18:34.931Z,29.40
2019-06-01T15:21:04.349Z,29.20
2019-06-01T15:23:33.818Z,29.30
2019-06-01T15:26:03.138Z,29.20
2019-06-01T15:28:32.615Z,29.60
2019-06-01T15:31:03.256Z,29.40
2019-06-01T15:33:32.739Z,29.00
2019-06-01T15:36:02.128Z,29.00
2019-06-01T15:38:31.472Z,28.90
2019-06-01T15:41:00.792Z,28.90
2019-06-01T15:43:30.163Z,28.90
2019-06-01T15:45:59.837Z,28.90
2019-06-01T15:48:29.346Z,28.70
2019-06-01T15:51:01.392Z,28.50
2019-06-01T15:53:29.670Z,28.60
2019-06-01T15:55:59.216Z,28.60
2019-06-01T15:58:28.586Z,28.80
2019-06-01T16:00:58.984Z,28.80
2019-06-01T16:03:28.579Z,28.60
2019-06-01T16:05:59.102Z,28.20
2019-06-01T16:08:28.541Z,28.50
2019-06-01T16:11:02.018Z,28.30
2019-06-01T16:13:28.903Z,28.30
2019-06-01T16:16:00.187Z,28.40
2019-06-01T16:18:29.208Z,28.10
2019-06-01T16:20:58.515Z,28.10
2019-06-01T16:23:28.308Z,28.00
2019-06-01T16:26:10.857Z,28.10
2019-06-01T16:28:28.694Z,28.10
2019-06-01T16:30:58.531Z,27.80
2019-06-01T16:33:28.075Z,27.80
2019-06-01T16:35:57.408Z,27.90
2019-06-01T16:38:27.691Z,27.80
2019-06-01T16:40:59.170Z,27.80
2019-06-01T16:43:28.586Z,27.70
2019-06-01T16:45:57.988Z,27.80
2019-06-01T16:48:27.335Z,27.60
2019-06-01T16:50:57.652Z,27.60
2019-06-01T16:53:27.250Z,27.50
2019-06-01T16:55:57.823Z,27.40
2019-06-01T16:58:27.217Z,27.30
2019-06-01T17:00:56.619Z,27.30
2019-06-01T17:03:25.953Z,27.10
2019-06-01T17:05:56.563Z,27.10
2019-06-01T17:08:26.058Z,27.00
2019-06-01T17:10:56.602Z,27.00
2019-06-01T17:13:27.050Z,27.00
2019-06-01T17:15:56.883Z,27.00
2019-06-01T17:18:26.234Z,26.90
2019-06-01T17:20:55.618Z,26.90
2019-06-01T17:23:27.991Z,26.80
2019-06-01T17:25:56.211Z,26.70
2019-06-01T17:28:25.594Z,26.60
2019-06-01T17:30:55.188Z,26.60
2019-06-01T17:33:24.689Z,26.50
2019-06-01T17:35:54.047Z,26.40
2019-06-01T17:38:23.495Z,26.40
2019-06-01T17:40:52.811Z,26.30
2019-06-01T17:43:22.215Z,26.20
2019-06-01T17:45:51.546Z,26.10
2019-06-01T17:48:26.467Z,26.00
2019-06-01T17:50:52.319Z,26.00
2019-06-01T17:53:21.626Z,25.90
2019-06-01T17:55:51.169Z,25.90
2019-06-01T17:58:20.589Z,25.80
2019-06-01T18:00:50.290Z,25.70
2019-06-01T18:03:19.758Z,25.70
2019-06-01T18:05:49.272Z,25.60
2019-06-01T18:08:18.680Z,25.60
2019-06-01T18:10:54.263Z,25.60
2019-06-01T18:13:19.209Z,25.50
2019-06-01T18:15:50.086Z,25.30
2019-06-01T18:18:19.695Z,25.30
2019-06-01T18:20:49.073Z,25.20
2019-06-01T18:23:18.405Z,25.00
2019-06-01T18:25:47.745Z,25.10
2019-06-01T18:28:19.774Z,25.00
2019-06-01T18:30:49.529Z,24.80
2019-06-01T18:33:19.150Z,24.90
2019-06-01T18:35:48.419Z,24.80
2019-06-01T18:38:17.712Z,24.80
2019-06-01T18:40:47.049Z,24.80
2019-06-01T18:43:18.453Z,24.80
2019-06-01T18:45:48.363Z,24.60
2019-06-01T18:48:18.590Z,24.50
2019-06-01T18:50:47.912Z,24.70
2019-06-01T18:53:17.212Z,24.90
2019-06-01T18:55:46.468Z,25.10
2019-06-01T18:58:15.864Z,25.20
2019-06-01T19:00:45.364Z,25.10
2019-06-01T19:03:15.483Z,25.20
2019-06-01T19:05:45.246Z,25.40
2019-06-01T19:08:16.278Z,25.60
2019-06-01T19:10:45.986Z,25.50
2019-06-01T19:13:16.017Z,25.30
2019-06-01T19:15:45.427Z,25.20
2019-06-01T19:18:14.833Z,25.30
2019-06-01T19:20:44.126Z,25.40
2019-06-01T19:23:14.779Z,25.50
2019-06-01T19:25:45.235Z,25.50
2019-06-01T19:28:15.270Z,25.40
2019-06-01T19:30:44.842Z,25.30
2019-06-01T19:33:17.260Z,24.70
2019-06-01T19:35:45.286Z,24.40
2019-06-01T19:38:15.496Z,24.40
2019-06-01T19:40:44.927Z,24.40
2019-06-01T19:43:15.567Z,24.40
2019-06-01T19:45:45.054Z,24.60
2019-06-01T19:48:14.699Z,24.50
2019-06-01T19:50:44.088Z,24.50
2019-06-01T19:53:14.644Z,24.40
2019-06-01T19:55:44.335Z,24.40
2019-06-01T19:58:14.326Z,24.20
2019-06-01T20:00:44.607Z,24.20
2019-06-01T20:03:14.766Z,24.30
2019-06-01T20:05:45.079Z,24.20
2019-06-01T20:08:14.402Z,24.20
2019-06-01T20:10:43.726Z,24.10
2019-06-01T20:13:13.131Z,23.90
2019-06-01T20:15:46.559Z,23.80
2019-06-01T20:18:19.200Z,23.80
2019-06-01T20:20:48.701Z,23.70
2019-06-01T20:23:19.553Z,23.70
2019-06-01T20:25:48.897Z,23.60
2019-06-01T20:28:18.171Z,23.60
2019-06-01T20:30:47.922Z,23.60
2019-06-01T20:33:18.285Z,23.40
2019-06-01T20:35:48.437Z,23.10
2019-06-01T20:38:18.495Z,23.10
2019-06-01T20:40:48.197Z,23.10
2019-06-01T20:43:18.604Z,23.10
2019-06-01T20:45:48.131Z,23.10
2019-06-01T20:48:18.818Z,23.00
2019-06-01T20:50:48.229Z,22.70
2019-06-01T20:53:18.919Z,22.90
2019-06-01T20:55:49.428Z,22.70
2019-06-01T20:58:21.290Z,22.60
2019-06-01T21:00:49.665Z,22.70
2019-06-01T21:03:19.766Z,22.70
2019-06-01T21:05:49.105Z,22.80
2019-06-01T21:08:18.455Z,23.00
2019-06-01T21:10:47.743Z,23.00
2019-06-01T21:13:18.087Z,22.80
2019-06-01T21:15:50.480Z,22.80
2019-06-01T21:18:20.959Z,22.70
2019-06-01T21:20:50.308Z,22.50
2019-06-01T21:23:20.730Z,22.40
2019-06-01T21:25:50.191Z,22.30
2019-06-01T21:28:20.534Z,22.30
2019-06-01T21:30:50.466Z,22.30
2019-06-01T21:33:19.908Z,22.40
2019-06-01T21:35:50.427Z,22.30
2019-06-01T21:38:19.697Z,22.20
2019-06-01T21:40:48.983Z,22.10
2019-06-01T21:43:25.166Z,22.00
2019-06-01T21:45:49.306Z,22.00
2019-06-01T21:48:19.746Z,21.90
2019-06-01T21:50:49.175Z,22.00
2019-06-01T21:53:19.820Z,21.90
2019-06-01T21:55:49.337Z,21.90
2019-06-01T21:58:18.876Z,21.80
2019-06-01T22:00:48.776Z,21.80
2019-06-01T22:03:19.106Z,21.80
2019-06-01T22:05:48.457Z,21.70
2019-06-01T22:08:19.037Z,21.60
2019-06-01T22:10:48.376Z,21.60
2019-06-01T22:13:21.086Z,21.40
2019-06-01T22:15:48.633Z,21.50
2019-06-01T22:18:17.992Z,21.50
2019-06-01T22:20:48.223Z,21.40
2019-06-01T22:23:17.948Z,21.40
2019-06-01T22:25:47.351Z,21.30
2019-06-01T22:28:16.641Z,21.20
2019-06-01T22:30:47.092Z,21.30
2019-06-01T22:33:16.367Z,21.40
2019-06-01T22:35:45.665Z,21.30
2019-06-01T22:38:14.942Z,21.20
2019-06-01T22:40:44.207Z,21.20
2019-06-01T22:43:13.504Z,21.20
2019-06-01T22:45:42.822Z,21.20
2019-06-01T22:48:12.119Z,21.00
2019-06-01T22:50:41.374Z,21.00
2019-06-01T22:53:10.676Z,20.90
2019-06-01T22:55:39.970Z,20.80
2019-06-01T22:58:09.249Z,20.70
2019-06-01T23:00:38.531Z,20.70
2019-06-01T23:03:07.829Z,20.80
2019-06-01T23:05:37.097Z,20.90
2019-06-01T23:08:06.370Z,20.90
2019-06-01T23:10:35.715Z,20.70
2019-06-01T23:13:04.986Z,20.80
2019-06-01T23:15:34.288Z,20.70
2019-06-01T23:18:03.589Z,20.50
2019-06-01T23:20:32.860Z,20.40
2019-06-01T23:23:02.131Z,20.50
2019-06-01T23:25:32.458Z,20.50
2019-06-01T23:28:02.027Z,20.40
2019-06-01T23:30:32.401Z,20.30
2019-06-01T23:33:01.801Z,20.30
2019-06-01T23:35:31.160Z,20.30
2019-06-01T23:38:00.456Z,20.20
2019-06-01T23:40:30.785Z,20.20
2019-06-01T23:43:00.085Z,20.10
2019-06-01T23:45:29.373Z,20.10
2019-06-01T23:47:58.658Z,20.20
2019-06-01T23:50:29.158Z,20.30
2019-06-01T23:53:12.789Z,20.20
2019-06-01T23:55:29.873Z,20.20
2019-06-01T23:57:59.189Z,20.20
